Aérodrome :
LOGIN :

S'inscrire | Disclaimer

   EN    FR    IT 

 










Légende :    VFR   VFR Marginal   IFR   IFR Intensif   IFR Très Intensif
Visi : 
Plafond : 
>= 8 km
>= 3000ft
5 à 8 km
1000 à 3000 ft
1500m à 5 km
500 à 1000 ft
800 à 1500m
200 à 500 ft
< 800m
< 200 ft
Symboles :   Orages  Brouillard  Fortes neiges  Fortes précipitations  Vent > 20 kt
SIGMETs :   Divers  Orages  Givrage  Turbulence  Onde Orograph.  Cendres Volcan.






- Altitude de l'aérodrome : -15 ft
- Code IATA : RTM


EHRD - Rotterdam Zestienhoven

DERNIER METAR :
  • 270625Z AUTO 02006KT 350V070 9999 NCD 16/08 Q1034 NOSIG

METARs EXPIRÉS :
  • 270555Z AUTO 02005KT 340V060 9999 NCD 14/10 Q1034 NOSIG
  • 270525Z AUTO 01003KT 320V070 9999 NSC 14/11 Q1034 NOSIG
  • 270455Z AUTO VRB02KT 9999 NCD 13/11 Q1034 NOSIG
  • 270425Z AUTO VRB02KT 9999 NCD 12/11 Q1034 NOSIG
  • 270355Z AUTO 36003KT 310V040 9999 NCD 12/11 Q1034 NOSIG

TAF TAF EHRD
Valide du 27 à 06h jusqu'au 28 à 12h UTC


270453Z 2706/2812 36005KT CAVOK
BECMG 2708/2711 36012KT
BECMG 2719/2722 02005KT
BECMG 2809/2812 05010KT



MET'MAP, la Météo Aéronautique d'un coup d'oeil ! - Copyright ORBIFLY Décembre 2007 - Disclaimer

ORBIFLY MET'MAP TEAM :

Programmation & Développement : Alexandra Zaïnal
Sur une idée originale de : Baudouin d'Aumeries
Assistance à la programmation : Marc-Olivier Méhu
Soutien technique & logistique : Manuel Goepfert

Contact : metmap@orbifly.com




SOURCES & CREDITS :

   NOAA